sensor_id;sensor_type;location;lat;lon;timestamp;pressure;altitude;pressure_sealevel;temperature;humidity
12991;BME280;6560;57.692;11.958;2023-04-06T00:00:03;101877.81;;;11.12;100.00
12991;BME280;6560;57.692;11.958;2023-04-06T00:02:30;101886.94;;;10.97;100.00
12991;BME280;6560;57.692;11.958;2023-04-06T00:04:55;101827.97;;;10.96;100.00
12991;BME280;6560;57.692;11.958;2023-04-06T00:07:22;101886.69;;;10.94;100.00
12991;BME280;6560;57.692;11.958;2023-04-06T00:09:47;101861.34;;;10.67;100.00
12991;BME280;6560;57.692;11.958;2023-04-06T00:12:13;101881.00;;;10.89;100.00
12991;BME280;6560;57.692;11.958;2023-04-06T00:14:38;101881.53;;;11.24;100.00
12991;BME280;6560;57.692;11.958;2023-04-06T00:17:05;101876.56;;;11.27;100.00
12991;BME280;6560;57.692;11.958;2023-04-06T00:19:30;101871.66;;;11.71;100.00
12991;BME280;6560;57.692;11.958;2023-04-06T00:21:56;101871.59;;;11.79;100.00
12991;BME280;6560;57.692;11.958;2023-04-06T00:24:21;101862.13;;;11.63;100.00
12991;BME280;6560;57.692;11.958;2023-04-06T00:26:47;101860.66;;;11.46;100.00
12991;BME280;6560;57.692;11.958;2023-04-06T00:29:12;101872.28;;;11.48;100.00
12991;BME280;6560;57.692;11.958;2023-04-06T00:31:38;101871.13;;;11.26;100.00
12991;BME280;6560;57.692;11.958;2023-04-06T00:34:03;101868.59;;;10.32;100.00
12991;BME280;6560;57.692;11.958;2023-04-06T00:36:29;101897.53;;;10.59;100.00
12991;BME280;6560;57.692;11.958;2023-04-06T00:38:55;101877.59;;;10.53;100.00
12991;BME280;6560;57.692;11.958;2023-04-06T00:41:20;101851.16;;;10.61;100.00
12991;BME280;6560;57.692;11.958;2023-04-06T00:43:46;101810.19;;;10.00;100.00
12991;BME280;6560;57.692;11.958;2023-04-06T00:46:12;101868.88;;;10.54;100.00
12991;BME280;6560;57.692;11.958;2023-04-06T00:48:37;101851.16;;;10.61;100.00
12991;BME280;6560;57.692;11.958;2023-04-06T00:51:04;101862.53;;;10.70;100.00
12991;BME280;6560;57.692;11.958;2023-04-06T00:53:29;101837.28;;;11.11;100.00
12991;BME280;6560;57.692;11.958;2023-04-06T00:55:55;101855.44;;;10.98;100.00
12991;BME280;6560;57.692;11.958;2023-04-06T00:58:21;101795.84;;;10.34;100.00
12991;BME280;6560;57.692;11.958;2023-04-06T01:00:46;101856.28;;;10.60;100.00
12991;BME280;6560;57.692;11.958;2023-04-06T01:03:12;101851.81;;;10.88;100.00
12991;BME280;6560;57.692;11.958;2023-04-06T01:05:37;101837.44;;;11.13;100.00
12991;BME280;6560;57.692;11.958;2023-04-06T01:08:06;101842.69;;;10.84;100.00
12991;BME280;6560;57.692;11.958;2023-04-06T01:10:32;101817.84;;;10.72;100.00
12991;BME280;6560;57.692;11.958;2023-04-06T01:12:58;101841.47;;;11.09;100.00
12991;BME280;6560;57.692;11.958;2023-04-06T01:15:24;101708.06;;;9.79;100.00
12991;BME280;6560;57.692;11.958;2023-04-06T01:17:49;101853.44;;;10.29;100.00
12991;BME280;6560;57.692;11.958;2023-04-06T01:20:15;101831.41;;;10.95;100.00
12991;BME280;6560;57.692;11.958;2023-04-06T01:22:40;101840.94;;;11.03;100.00
12991;BME280;6560;57.692;11.958;2023-04-06T01:25:06;101842.88;;;10.67;100.00
12991;BME280;6560;57.692;11.958;2023-04-06T01:27:32;101851.06;;;10.51;100.00
12991;BME280;6560;57.692;11.958;2023-04-06T01:29:58;101841.19;;;10.30;100.00
12991;BME280;6560;57.692;11.958;2023-04-06T01:32:24;101848.84;;;10.74;100.00
12991;BME280;6560;57.692;11.958;2023-04-06T01:34:49;101846.72;;;10.52;100.00
12991;BME280;6560;57.692;11.958;2023-04-06T01:37:15;101844.59;;;10.29;100.00
12991;BME280;6560;57.692;11.958;2023-04-06T01:39:42;101839.81;;;10.44;100.00
12991;BME280;6560;57.692;11.958;2023-04-06T01:42:08;101846.75;;;9.51;100.00
12991;BME280;6560;57.692;11.958;2023-04-06T01:44:33;101779.69;;;10.21;100.00
12991;BME280;6560;57.692;11.958;2023-04-06T01:46:59;101835.56;;;10.83;100.00
12991;BME280;6560;57.692;11.958;2023-04-06T01:49:25;101830.50;;;10.95;100.00
12991;BME280;6560;57.692;11.958;2023-04-06T01:51:50;101831.22;;;11.12;100.00
12991;BME280;6560;57.692;11.958;2023-04-06T01:54:17;101729.78;;;7.89;100.00
12991;BME280;6560;57.692;11.958;2023-04-06T01:56:43;101840.78;;;8.56;100.00
12991;BME280;6560;57.692;11.958;2023-04-06T01:59:09;101845.72;;;8.70;100.00
12991;BME280;6560;57.692;11.958;2023-04-06T02:01:34;101775.84;;;9.44;100.00
12991;BME280;6560;57.692;11.958;2023-04-06T02:04:00;101780.41;;;9.28;100.00
12991;BME280;6560;57.692;11.958;2023-04-06T02:06:25;101796.25;;;8.23;100.00
12991;BME280;6560;57.692;11.958;2023-04-06T02:08:51;101844.59;;;8.16;100.00
12991;BME280;6560;57.692;11.958;2023-04-06T02:11:17;101820.06;;;7.57;100.00
12991;BME280;6560;57.692;11.958;2023-04-06T02:13:43;101731.19;;;7.10;100.00
12991;BME280;6560;57.692;11.958;2023-04-06T02:16:10;101833.31;;;7.50;100.00
12991;BME280;6560;57.692;11.958;2023-04-06T02:18:35;101838.41;;;8.16;100.00
12991;BME280;6560;57.692;11.958;2023-04-06T02:21:01;101759.63;;;9.03;100.00
12991;BME280;6560;57.692;11.958;2023-04-06T02:23:26;101853.59;;;10.04;100.00
12991;BME280;6560;57.692;11.958;2023-04-06T02:25:52;101774.94;;;9.71;100.00
12991;BME280;6560;57.692;11.958;2023-04-06T02:28:17;101772.16;;;9.88;100.00
12991;BME280;6560;57.692;11.958;2023-04-06T02:30:43;101773.81;;;10.15;100.00
12991;BME280;6560;57.692;11.958;2023-04-06T02:33:08;101813.72;;;10.47;100.00
12991;BME280;6560;57.692;11.958;2023-04-06T02:35:34;101826.06;;;10.56;100.00
12991;BME280;6560;57.692;11.958;2023-04-06T02:37:59;101816.84;;;10.90;100.00
12991;BME280;6560;57.692;11.958;2023-04-06T02:40:25;101799.53;;;11.12;100.00
12991;BME280;6560;57.692;11.958;2023-04-06T02:42:50;101821.22;;;11.18;100.00
12991;BME280;6560;57.692;11.958;2023-04-06T02:45:16;101833.84;;;10.36;100.00
12991;BME280;6560;57.692;11.958;2023-04-06T02:47:41;101827.28;;;10.41;100.00
12991;BME280;6560;57.692;11.958;2023-04-06T02:50:07;101814.78;;;8.76;100.00
12991;BME280;6560;57.692;11.958;2023-04-06T02:52:33;101772.28;;;7.85;100.00
12991;BME280;6560;57.692;11.958;2023-04-06T02:54:58;101775.78;;;7.69;100.00
12991;BME280;6560;57.692;11.958;2023-04-06T02:57:24;101829.88;;;8.01;100.00
12991;BME280;6560;57.692;11.958;2023-04-06T02:59:49;101786.00;;;7.74;100.00
12991;BME280;6560;57.692;11.958;2023-04-06T03:02:15;101835.59;;;7.88;100.00
12991;BME280;6560;57.692;11.958;2023-04-06T03:04:43;101623.69;;;6.60;100.00
12991;BME280;6560;57.692;11.958;2023-04-06T03:07:09;101760.03;;;7.10;100.00
12991;BME280;6560;57.692;11.958;2023-04-06T03:09:36;101852.44;;;7.49;100.00
12991;BME280;6560;57.692;11.958;2023-04-06T03:12:02;101709.28;;;7.01;100.00
12991;BME280;6560;57.692;11.958;2023-04-06T03:14:28;101843.75;;;7.74;100.00
12991;BME280;6560;57.692;11.958;2023-04-06T03:16:53;101842.47;;;7.20;100.00
12991;BME280;6560;57.692;11.958;2023-04-06T03:19:19;101582.38;;;5.91;100.00
12991;BME280;6560;57.692;11.958;2023-04-06T03:21:45;101862.78;;;6.90;100.00
12991;BME280;6560;57.692;11.958;2023-04-06T03:24:10;101746.44;;;6.72;100.00
12991;BME280;6560;57.692;11.958;2023-04-06T03:26:36;101856.69;;;7.64;100.00
12991;BME280;6560;57.692;11.958;2023-04-06T03:29:01;101863.16;;;7.59;100.00
12991;BME280;6560;57.692;11.958;2023-04-06T03:31:27;101772.75;;;8.42;100.00
12991;BME280;6560;57.692;11.958;2023-04-06T03:33:52;101784.78;;;7.29;100.00
12991;BME280;6560;57.692;11.958;2023-04-06T03:36:18;101860.06;;;8.22;100.00
12991;BME280;6560;57.692;11.958;2023-04-06T03:38:45;101851.56;;;10.28;100.00
12991;BME280;6560;57.692;11.958;2023-04-06T03:41:11;101854.25;;;8.33;100.00
12991;BME280;6560;57.692;11.958;2023-04-06T03:43:36;101837.75;;;9.49;100.00
12991;BME280;6560;57.692;11.958;2023-04-06T03:46:02;101857.03;;;9.67;100.00
12991;BME280;6560;57.692;11.958;2023-04-06T03:48:27;101822.75;;;9.39;100.00
12991;BME280;6560;57.692;11.958;2023-04-06T03:50:53;101788.97;;;9.25;100.00
12991;BME280;6560;57.692;11.958;2023-04-06T03:53:18;101861.97;;;8.40;100.00
12991;BME280;6560;57.692;11.958;2023-04-06T03:55:44;101841.81;;;10.27;100.00
12991;BME280;6560;57.692;11.958;2023-04-06T03:58:09;101850.44;;;10.08;100.00
12991;BME280;6560;57.692;11.958;2023-04-06T04:00:35;101843.50;;;10.64;100.00
12991;BME280;6560;57.692;11.958;2023-04-06T04:03:01;101865.31;;;10.07;100.00
12991;BME280;6560;57.692;11.958;2023-04-06T04:05:27;101860.06;;;10.07;100.00
12991;BME280;6560;57.692;11.958;2023-04-06T04:07:53;101834.47;;;10.33;100.00
12991;BME280;6560;57.692;11.958;2023-04-06T04:10:18;101861.19;;;10.28;100.00
12991;BME280;6560;57.692;11.958;2023-04-06T04:12:44;101779.22;;;9.15;100.00
12991;BME280;6560;57.692;11.958;2023-04-06T04:15:09;101867.63;;;9.05;100.00
12991;BME280;6560;57.692;11.958;2023-04-06T04:17:35;101858.78;;;9.57;100.00
12991;BME280;6560;57.692;11.958;2023-04-06T04:20:00;101860.00;;;9.25;100.00
12991;BME280;6560;57.692;11.958;2023-04-06T04:22:26;101858.50;;;9.82;100.00
12991;BME280;6560;57.692;11.958;2023-04-06T04:24:53;101836.34;;;9.16;100.00
12991;BME280;6560;57.692;11.958;2023-04-06T04:27:18;101762.69;;;8.55;100.00
12991;BME280;6560;57.692;11.958;2023-04-06T04:29:44;101814.69;;;9.10;100.00
12991;BME280;6560;57.692;11.958;2023-04-06T04:32:09;101864.16;;;9.95;100.00
12991;BME280;6560;57.692;11.958;2023-04-06T04:34:35;101842.53;;;10.35;100.00
12991;BME280;6560;57.692;11.958;2023-04-06T04:37:00;101857.06;;;10.13;100.00
12991;BME280;6560;57.692;11.958;2023-04-06T04:39:26;101857.25;;;10.52;100.00
12991;BME280;6560;57.692;11.958;2023-04-06T04:41:51;101865.16;;;10.52;100.00
12991;BME280;6560;57.692;11.958;2023-04-06T04:44:17;101856.84;;;10.28;100.00
12991;BME280;6560;57.692;11.958;2023-04-06T04:46:42;101873.22;;;8.82;100.00
12991;BME280;6560;57.692;11.958;2023-04-06T04:49:08;101872.22;;;9.69;100.00
12991;BME280;6560;57.692;11.958;2023-04-06T04:51:33;101869.19;;;10.11;100.00
12991;BME280;6560;57.692;11.958;2023-04-06T04:53:59;101861.47;;;10.31;100.00
12991;BME280;6560;57.692;11.958;2023-04-06T04:56:24;101837.88;;;10.32;100.00
12991;BME280;6560;57.692;11.958;2023-04-06T04:58:50;101854.41;;;10.21;100.00
12991;BME280;6560;57.692;11.958;2023-04-06T05:01:15;101864.97;;;10.59;100.00
12991;BME280;6560;57.692;11.958;2023-04-06T05:03:41;101844.81;;;10.13;100.00
12991;BME280;6560;57.692;11.958;2023-04-06T05:06:07;101882.53;;;10.31;100.00
12991;BME280;6560;57.692;11.958;2023-04-06T05:08:32;101863.09;;;10.95;100.00
12991;BME280;6560;57.692;11.958;2023-04-06T05:10:58;101811.25;;;10.29;100.00
12991;BME280;6560;57.692;11.958;2023-04-06T05:13:24;101869.63;;;10.90;100.00
12991;BME280;6560;57.692;11.958;2023-04-06T05:15:49;101863.09;;;10.95;100.00
12991;BME280;6560;57.692;11.958;2023-04-06T05:18:15;101878.41;;;10.24;100.00
12991;BME280;6560;57.692;11.958;2023-04-06T05:20:40;101874.16;;;10.35;100.00
12991;BME280;6560;57.692;11.958;2023-04-06T05:23:06;101746.72;;;9.51;100.00
12991;BME280;6560;57.692;11.958;2023-04-06T05:25:32;101876.56;;;10.79;100.00
12991;BME280;6560;57.692;11.958;2023-04-06T05:27:57;101849.13;;;9.94;100.00
12991;BME280;6560;57.692;11.958;2023-04-06T05:30:23;101867.72;;;9.95;100.00
12991;BME280;6560;57.692;11.958;2023-04-06T05:32:48;101844.28;;;9.98;100.00
12991;BME280;6560;57.692;11.958;2023-04-06T05:35:14;101868.81;;;10.44;100.00
12991;BME280;6560;57.692;11.958;2023-04-06T05:37:41;101873.44;;;10.65;100.00
12991;BME280;6560;57.692;11.958;2023-04-06T05:40:07;101852.81;;;11.76;100.00
12991;BME280;6560;57.692;11.958;2023-04-06T05:42:39;101844.38;;;12.21;100.00
12991;BME280;6560;57.692;11.958;2023-04-06T05:45:08;101867.38;;;12.42;100.00
12991;BME280;6560;57.692;11.958;2023-04-06T05:47:34;101858.53;;;12.31;100.00
12991;BME280;6560;57.692;11.958;2023-04-06T05:50:00;101856.63;;;12.71;100.00
12991;BME280;6560;57.692;11.958;2023-04-06T05:52:26;101857.06;;;12.55;100.00
12991;BME280;6560;57.692;11.958;2023-04-06T05:54:51;101854.13;;;13.14;100.00
12991;BME280;6560;57.692;11.958;2023-04-06T05:57:18;101861.78;;;13.22;100.00
12991;BME280;6560;57.692;11.958;2023-04-06T05:59:44;101876.50;;;13.08;100.00
12991;BME280;6560;57.692;11.958;2023-04-06T06:02:10;101837.72;;;13.40;100.00
12991;BME280;6560;57.692;11.958;2023-04-06T06:04:35;101798.34;;;12.59;100.00
12991;BME280;6560;57.692;11.958;2023-04-06T06:07:01;101785.06;;;12.69;100.00
12991;BME280;6560;57.692;11.958;2023-04-06T06:09:26;101862.81;;;12.82;100.00
12991;BME280;6560;57.692;11.958;2023-04-06T06:11:52;101824.22;;;12.63;100.00
12991;BME280;6560;57.692;11.958;2023-04-06T06:14:18;101847.06;;;12.83;100.00
12991;BME280;6560;57.692;11.958;2023-04-06T06:16:43;101794.19;;;12.63;100.00
12991;BME280;6560;57.692;11.958;2023-04-06T06:19:09;101871.91;;;12.95;100.00
12991;BME280;6560;57.692;11.958;2023-04-06T06:21:34;101756.09;;;12.19;100.00
12991;BME280;6560;57.692;11.958;2023-04-06T06:24:00;101867.22;;;12.71;100.00
12991;BME280;6560;57.692;11.958;2023-04-06T06:26:25;101865.53;;;12.21;100.00
12991;BME280;6560;57.692;11.958;2023-04-06T06:28:51;101876.56;;;11.66;100.00
12991;BME280;6560;57.692;11.958;2023-04-06T06:31:16;101866.63;;;11.64;100.00
12991;BME280;6560;57.692;11.958;2023-04-06T06:33:42;101784.66;;;10.84;100.00
12991;BME280;6560;57.692;11.958;2023-04-06T06:36:07;101847.22;;;11.24;100.00
12991;BME280;6560;57.692;11.958;2023-04-06T06:38:33;101733.94;;;11.07;100.00
12991;BME280;6560;57.692;11.958;2023-04-06T06:41:05;101662.31;;;11.12;100.00
12991;BME280;6560;57.692;11.958;2023-04-06T06:43:32;101729.66;;;11.38;100.00
12991;BME280;6560;57.692;11.958;2023-04-06T06:45:57;101665.22;;;11.46;100.00
12991;BME280;6560;57.692;11.958;2023-04-06T06:48:23;101829.34;;;12.20;100.00
12991;BME280;6560;57.692;11.958;2023-04-06T06:50:49;101860.00;;;12.38;100.00
12991;BME280;6560;57.692;11.958;2023-04-06T06:53:14;101812.00;;;11.83;100.00
12991;BME280;6560;57.692;11.958;2023-04-06T06:55:40;101845.72;;;12.26;100.00
12991;BME280;6560;57.692;11.958;2023-04-06T06:58:06;101877.94;;;12.62;100.00
12991;BME280;6560;57.692;11.958;2023-04-06T07:00:33;101703.41;;;11.90;100.00
12991;BME280;6560;57.692;11.958;2023-04-06T07:02:59;101877.16;;;12.63;100.00
12991;BME280;6560;57.692;11.958;2023-04-06T07:05:25;101866.59;;;13.05;100.00
12991;BME280;6560;57.692;11.958;2023-04-06T07:07:51;101827.50;;;13.23;100.00
12991;BME280;6560;57.692;11.958;2023-04-06T07:10:16;101875.31;;;13.14;100.00
12991;BME280;6560;57.692;11.958;2023-04-06T07:12:42;101809.31;;;12.96;100.00
12991;BME280;6560;57.692;11.958;2023-04-06T07:15:07;101884.09;;;13.45;100.00
12991;BME280;6560;57.692;11.958;2023-04-06T07:17:33;101848.28;;;13.50;100.00
12991;BME280;6560;57.692;11.958;2023-04-06T07:20:01;101876.38;;;13.06;100.00
12991;BME280;6560;57.692;11.958;2023-04-06T07:22:27;101765.72;;;13.34;100.00
12991;BME280;6560;57.692;11.958;2023-04-06T07:24:52;101825.47;;;13.52;100.00
12991;BME280;6560;57.692;11.958;2023-04-06T07:27:17;101855.22;;;13.60;100.00
12991;BME280;6560;57.692;11.958;2023-04-06T07:29:44;101800.16;;;13.12;100.00
12991;BME280;6560;57.692;11.958;2023-04-06T07:32:09;101807.47;;;13.70;100.00
12991;BME280;6560;57.692;11.958;2023-04-06T07:34:35;101845.88;;;13.75;100.00
12991;BME280;6560;57.692;11.958;2023-04-06T07:37:01;101803.78;;;13.46;100.00
12991;BME280;6560;57.692;11.958;2023-04-06T07:39:26;101772.41;;;13.63;100.00
12991;BME280;6560;57.692;11.958;2023-04-06T07:41:52;101817.75;;;13.02;100.00
12991;BME280;6560;57.692;11.958;2023-04-06T07:44:18;101881.88;;;13.62;100.00
12991;BME280;6560;57.692;11.958;2023-04-06T07:46:43;101836.81;;;13.62;100.00
12991;BME280;6560;57.692;11.958;2023-04-06T07:49:09;101864.88;;;13.70;100.00
12991;BME280;6560;57.692;11.958;2023-04-06T07:51:38;101875.22;;;14.22;100.00
12991;BME280;6560;57.692;11.958;2023-04-06T07:54:04;101874.34;;;13.56;100.00
12991;BME280;6560;57.692;11.958;2023-04-06T07:56:29;101852.63;;;13.93;100.00
12991;BME280;6560;57.692;11.958;2023-04-06T07:58:55;101879.88;;;14.03;100.00
12991;BME280;6560;57.692;11.958;2023-04-06T08:01:22;101874.31;;;13.34;100.00
12991;BME280;6560;57.692;11.958;2023-04-06T08:03:48;101870.94;;;12.73;100.00
12991;BME280;6560;57.692;11.958;2023-04-06T08:06:14;101881.09;;;12.78;100.00
12991;BME280;6560;57.692;11.958;2023-04-06T08:08:39;101840.00;;;12.42;100.00
12991;BME280;6560;57.692;11.958;2023-04-06T08:11:05;101822.09;;;12.69;100.00
12991;BME280;6560;57.692;11.958;2023-04-06T08:13:30;101850.56;;;12.72;100.00
12991;BME280;6560;57.692;11.958;2023-04-06T08:15:56;101872.44;;;12.39;100.00
12991;BME280;6560;57.692;11.958;2023-04-06T08:18:22;101875.84;;;12.58;100.00
12991;BME280;6560;57.692;11.958;2023-04-06T08:20:47;101783.22;;;11.86;100.00
12991;BME280;6560;57.692;11.958;2023-04-06T08:23:14;101874.03;;;12.27;100.00
12991;BME280;6560;57.692;11.958;2023-04-06T08:25:41;101888.03;;;13.50;100.00
12991;BME280;6560;57.692;11.958;2023-04-06T08:28:07;101892.53;;;13.95;100.00
12991;BME280;6560;57.692;11.958;2023-04-06T08:30:34;101843.88;;;13.94;100.00
12991;BME280;6560;57.692;11.958;2023-04-06T08:33:00;101890.44;;;13.91;100.00
12991;BME280;6560;57.692;11.958;2023-04-06T08:35:26;101837.19;;;14.00;100.00
12991;BME280;6560;57.692;11.958;2023-04-06T08:37:52;101899.19;;;14.45;100.00
12991;BME280;6560;57.692;11.958;2023-04-06T08:40:18;101903.63;;;14.01;100.00
12991;BME280;6560;57.692;11.958;2023-04-06T08:42:52;101848.09;;;13.81;100.00
12991;BME280;6560;57.692;11.958;2023-04-06T08:45:19;101841.81;;;13.69;100.00
12991;BME280;6560;57.692;11.958;2023-04-06T08:47:47;101829.50;;;14.03;100.00
12991;BME280;6560;57.692;11.958;2023-04-06T08:50:16;101908.03;;;14.12;100.00
12991;BME280;6560;57.692;11.958;2023-04-06T08:52:43;101903.31;;;14.63;100.00
12991;BME280;6560;57.692;11.958;2023-04-06T08:55:09;101909.63;;;14.54;100.00
12991;BME280;6560;57.692;11.958;2023-04-06T08:57:35;101899.53;;;14.83;100.00
12991;BME280;6560;57.692;11.958;2023-04-06T09:00:01;101872.13;;;14.84;100.00
12991;BME280;6560;57.692;11.958;2023-04-06T09:02:27;101837.75;;;14.86;100.00
12991;BME280;6560;57.692;11.958;2023-04-06T09:04:53;101885.66;;;14.87;100.00
12991;BME280;6560;57.692;11.958;2023-04-06T09:07:20;101917.31;;;15.42;100.00
12991;BME280;6560;57.692;11.958;2023-04-06T09:09:47;101907.13;;;15.25;100.00
12991;BME280;6560;57.692;11.958;2023-04-06T09:12:30;101857.94;;;15.07;100.00
12991;BME280;6560;57.692;11.958;2023-04-06T09:14:57;101838.31;;;14.82;100.00
12991;BME280;6560;57.692;11.958;2023-04-06T09:17:24;101918.09;;;15.18;100.00
12991;BME280;6560;57.692;11.958;2023-04-06T09:19:50;101842.75;;;14.36;100.00
12991;BME280;6560;57.692;11.958;2023-04-06T09:22:17;101914.19;;;15.13;100.00
12991;BME280;6560;57.692;11.958;2023-04-06T09:24:52;101843.25;;;14.65;100.00
12991;BME280;6560;57.692;11.958;2023-04-06T09:27:18;101872.25;;;14.62;100.00
12991;BME280;6560;57.692;11.958;2023-04-06T09:30:05;101911.88;;;15.29;100.00
12991;BME280;6560;57.692;11.958;2023-04-06T09:32:31;101905.97;;;15.33;100.00
12991;BME280;6560;57.692;11.958;2023-04-06T09:35:09;101905.03;;;15.68;100.00
12991;BME280;6560;57.692;11.958;2023-04-06T09:37:35;101840.06;;;14.93;100.00
12991;BME280;6560;57.692;11.958;2023-04-06T09:40:05;101898.00;;;15.10;100.00
12991;BME280;6560;57.692;11.958;2023-04-06T09:42:31;101935.78;;;14.94;100.00
12991;BME280;6560;57.692;11.958;2023-04-06T09:44:56;101926.88;;;14.82;100.00
12991;BME280;6560;57.692;11.958;2023-04-06T09:47:22;101935.69;;;14.59;100.00
12991;BME280;6560;57.692;11.958;2023-04-06T09:49:55;101885.72;;;14.42;100.00
12991;BME280;6560;57.692;11.958;2023-04-06T09:52:24;101893.44;;;14.17;100.00
12991;BME280;6560;57.692;11.958;2023-04-06T09:54:52;101884.59;;;14.97;100.00
12991;BME280;6560;57.692;11.958;2023-04-06T09:57:37;101928.03;;;14.86;100.00
12991;BME280;6560;57.692;11.958;2023-04-06T10:00:08;101893.78;;;14.44;100.00
12991;BME280;6560;57.692;11.958;2023-04-06T10:07:59;101870.59;;;15.46;100.00
12991;BME280;6560;57.692;11.958;2023-04-06T10:10:27;101887.81;;;15.63;100.00
12991;BME280;6560;57.692;11.958;2023-04-06T10:12:53;101922.91;;;16.18;100.00
12991;BME280;6560;57.692;11.958;2023-04-06T10:15:21;101915.69;;;15.33;100.00
12991;BME280;6560;57.692;11.958;2023-04-06T10:17:46;101859.38;;;15.98;100.00
12991;BME280;6560;57.692;11.958;2023-04-06T10:20:17;101901.31;;;16.77;100.00
12991;BME280;6560;57.692;11.958;2023-04-06T10:23:05;101915.59;;;16.90;100.00
12991;BME280;6560;57.692;11.958;2023-04-06T10:25:34;101908.81;;;17.08;100.00
12991;BME280;6560;57.692;11.958;2023-04-06T10:28:07;101928.72;;;16.13;100.00
12991;BME280;6560;57.692;11.958;2023-04-06T10:30:41;101823.91;;;16.11;100.00
12991;BME280;6560;57.692;11.958;2023-04-06T10:33:14;101915.44;;;16.76;100.00
12991;BME280;6560;57.692;11.958;2023-04-06T10:35:40;101914.66;;;17.03;100.00
12991;BME280;6560;57.692;11.958;2023-04-06T10:38:06;101878.66;;;17.75;100.00
12991;BME280;6560;57.692;11.958;2023-04-06T10:40:32;101913.22;;;17.47;100.00
12991;BME280;6560;57.692;11.958;2023-04-06T10:43:12;101879.72;;;18.20;100.00
12991;BME280;6560;57.692;11.958;2023-04-06T10:45:38;101911.38;;;17.20;100.00
12991;BME280;6560;57.692;11.958;2023-04-06T10:48:14;101880.16;;;18.13;100.00
12991;BME280;6560;57.692;11.958;2023-04-06T10:50:44;101911.28;;;18.55;100.00
12991;BME280;6560;57.692;11.958;2023-04-06T10:53:10;101912.69;;;19.51;100.00
12991;BME280;6560;57.692;11.958;2023-04-06T10:55:38;101908.41;;;19.09;100.00
12991;BME280;6560;57.692;11.958;2023-04-06T10:58:08;101904.72;;;19.07;100.00
12991;BME280;6560;57.692;11.958;2023-04-06T11:00:34;101917.25;;;19.23;100.00
12991;BME280;6560;57.692;11.958;2023-04-06T11:03:00;101905.91;;;17.98;100.00
12991;BME280;6560;57.692;11.958;2023-04-06T11:05:28;101913.31;;;18.16;100.00
12991;BME280;6560;57.692;11.958;2023-04-06T11:07:55;101863.72;;;18.62;100.00
12991;BME280;6560;57.692;11.958;2023-04-06T11:10:22;101907.41;;;19.83;100.00
12991;BME280;6560;57.692;11.958;2023-04-06T11:12:53;101907.28;;;20.61;100.00
12991;BME280;6560;57.692;11.958;2023-04-06T11:15:20;101913.72;;;20.16;100.00
12991;BME280;6560;57.692;11.958;2023-04-06T11:17:45;101901.84;;;19.95;100.00
12991;BME280;6560;57.692;11.958;2023-04-06T11:20:11;101903.78;;;19.67;100.00
12991;BME280;6560;57.692;11.958;2023-04-06T11:22:48;101923.38;;;19.51;100.00
12991;BME280;6560;57.692;11.958;2023-04-06T11:25:14;101875.50;;;18.81;100.00
12991;BME280;6560;57.692;11.958;2023-04-06T11:27:42;101867.03;;;19.33;100.00
12991;BME280;6560;57.692;11.958;2023-04-06T11:30:09;101826.59;;;19.13;100.00
12991;BME280;6560;57.692;11.958;2023-04-06T11:32:44;101909.06;;;18.48;100.00
12991;BME280;6560;57.692;11.958;2023-04-06T11:35:23;101914.84;;;19.13;100.00
12991;BME280;6560;57.692;11.958;2023-04-06T11:37:50;101911.00;;;19.68;100.00
12991;BME280;6560;57.692;11.958;2023-04-06T11:40:20;101870.47;;;19.93;100.00
12991;BME280;6560;57.692;11.958;2023-04-06T11:42:52;101837.50;;;19.94;100.00
12991;BME280;6560;57.692;11.958;2023-04-06T11:45:18;101897.47;;;20.29;100.00
12991;BME280;6560;57.692;11.958;2023-04-06T11:47:43;101884.38;;;20.02;100.00
12991;BME280;6560;57.692;11.958;2023-04-06T11:50:13;101838.47;;;19.18;100.00
12991;BME280;6560;57.692;11.958;2023-04-06T11:52:40;101898.38;;;19.81;100.00
12991;BME280;6560;57.692;11.958;2023-04-06T11:55:16;101900.75;;;20.08;100.00
12991;BME280;6560;57.692;11.958;2023-04-06T11:57:42;101891.69;;;19.89;100.00
12991;BME280;6560;57.692;11.958;2023-04-06T12:00:09;101855.41;;;19.95;100.00
12991;BME280;6560;57.692;11.958;2023-04-06T12:02:36;101896.50;;;20.44;100.00
12991;BME280;6560;57.692;11.958;2023-04-06T12:05:02;101908.28;;;20.63;100.00
12991;BME280;6560;57.692;11.958;2023-04-06T12:07:29;101888.84;;;19.86;100.00
12991;BME280;6560;57.692;11.958;2023-04-06T12:09:55;101917.66;;;20.07;100.00
12991;BME280;6560;57.692;11.958;2023-04-06T12:12:21;101915.19;;;20.92;100.00
12991;BME280;6560;57.692;11.958;2023-04-06T12:14:46;101850.69;;;20.55;100.00
12991;BME280;6560;57.692;11.958;2023-04-06T12:17:13;101919.63;;;20.92;100.00
12991;BME280;6560;57.692;11.958;2023-04-06T12:19:39;101895.00;;;20.83;100.00
12991;BME280;6560;57.692;11.958;2023-04-06T12:22:04;101891.28;;;20.79;100.00
12991;BME280;6560;57.692;11.958;2023-04-06T12:24:30;101899.38;;;20.81;100.00
12991;BME280;6560;57.692;11.958;2023-04-06T12:26:55;101897.66;;;20.49;100.00
12991;BME280;6560;57.692;11.958;2023-04-06T12:29:22;101897.47;;;19.81;100.00
12991;BME280;6560;57.692;11.958;2023-04-06T12:31:47;101923.72;;;19.57;100.00
12991;BME280;6560;57.692;11.958;2023-04-06T12:34:13;101834.28;;;18.92;100.00
12991;BME280;6560;57.692;11.958;2023-04-06T12:36:38;101924.25;;;19.21;100.00
12991;BME280;6560;57.692;11.958;2023-04-06T12:39:05;101869.03;;;18.20;100.00
12991;BME280;6560;57.692;11.958;2023-04-06T12:41:31;101920.03;;;18.52;100.00
12991;BME280;6560;57.692;11.958;2023-04-06T12:43:58;101859.75;;;18.70;100.00